sensor_id;sensor_type;location;lat;lon;timestamp;P1;durP1;ratioP1;P2;durP2;ratioP2
2966;SDS011;1493;51.496;7.210;2023-03-01T00:00:53;9.88;;;5.88;;
2966;SDS011;1493;51.496;7.210;2023-03-01T00:03:27;7.45;;;5.32;;
2966;SDS011;1493;51.496;7.210;2023-03-01T00:05:54;9.15;;;5.55;;
2966;SDS011;1493;51.496;7.210;2023-03-01T00:08:21;11.02;;;6.68;;
2966;SDS011;1493;51.496;7.210;2023-03-01T00:10:47;7.28;;;5.40;;
2966;SDS011;1493;51.496;7.210;2023-03-01T00:13:14;7.75;;;5.80;;
2966;SDS011;1493;51.496;7.210;2023-03-01T00:15:41;8.80;;;6.60;;
2966;SDS011;1493;51.496;7.210;2023-03-01T00:18:08;9.32;;;6.18;;
2966;SDS011;1493;51.496;7.210;2023-03-01T00:20:36;7.70;;;5.68;;
2966;SDS011;1493;51.496;7.210;2023-03-01T00:23:03;6.18;;;5.30;;
2966;SDS011;1493;51.496;7.210;2023-03-01T00:25:30;7.68;;;5.30;;
2966;SDS011;1493;51.496;7.210;2023-03-01T00:27:57;9.50;;;6.25;;
2966;SDS011;1493;51.496;7.210;2023-03-01T00:30:23;9.20;;;5.85;;
2966;SDS011;1493;51.496;7.210;2023-03-01T00:32:50;10.45;;;5.47;;
2966;SDS011;1493;51.496;7.210;2023-03-01T00:35:17;8.13;;;5.68;;
2966;SDS011;1493;51.496;7.210;2023-03-01T00:37:46;8.43;;;5.63;;
2966;SDS011;1493;51.496;7.210;2023-03-01T00:40:13;10.13;;;6.47;;
2966;SDS011;1493;51.496;7.210;2023-03-01T00:42:41;9.50;;;6.25;;
2966;SDS011;1493;51.496;7.210;2023-03-01T00:45:08;7.55;;;5.70;;
2966;SDS011;1493;51.496;7.210;2023-03-01T00:47:35;9.93;;;6.43;;
2966;SDS011;1493;51.496;7.210;2023-03-01T00:50:02;12.43;;;6.10;;
2966;SDS011;1493;51.496;7.210;2023-03-01T00:52:29;8.48;;;5.53;;
2966;SDS011;1493;51.496;7.210;2023-03-01T00:54:57;7.50;;;5.40;;
2966;SDS011;1493;51.496;7.210;2023-03-01T00:57:24;10.48;;;6.18;;
2966;SDS011;1493;51.496;7.210;2023-03-01T00:59:51;7.00;;;5.10;;
2966;SDS011;1493;51.496;7.210;2023-03-01T01:02:18;8.30;;;6.15;;
2966;SDS011;1493;51.496;7.210;2023-03-01T01:04:46;9.77;;;6.75;;
2966;SDS011;1493;51.496;7.210;2023-03-01T01:07:15;7.43;;;5.75;;
2966;SDS011;1493;51.496;7.210;2023-03-01T01:09:42;9.57;;;5.82;;
2966;SDS011;1493;51.496;7.210;2023-03-01T01:12:10;8.75;;;5.68;;
2966;SDS011;1493;51.496;7.210;2023-03-01T01:14:37;7.80;;;5.90;;
2966;SDS011;1493;51.496;7.210;2023-03-01T01:17:04;11.25;;;6.22;;
2966;SDS011;1493;51.496;7.210;2023-03-01T01:19:30;10.07;;;5.70;;
2966;SDS011;1493;51.496;7.210;2023-03-01T01:21:57;7.38;;;6.20;;
2966;SDS011;1493;51.496;7.210;2023-03-01T01:24:24;7.18;;;4.80;;
2966;SDS011;1493;51.496;7.210;2023-03-01T01:26:51;11.00;;;5.70;;
2966;SDS011;1493;51.496;7.210;2023-03-01T01:29:19;8.82;;;6.32;;
2966;SDS011;1493;51.496;7.210;2023-03-01T01:31:46;7.28;;;5.38;;
2966;SDS011;1493;51.496;7.210;2023-03-01T01:34:14;8.57;;;6.10;;
2966;SDS011;1493;51.496;7.210;2023-03-01T01:36:42;8.07;;;5.80;;
2966;SDS011;1493;51.496;7.210;2023-03-01T01:39:09;7.93;;;6.05;;
2966;SDS011;1493;51.496;7.210;2023-03-01T01:41:38;7.90;;;6.50;;
2966;SDS011;1493;51.496;7.210;2023-03-01T01:44:10;10.05;;;6.82;;
2966;SDS011;1493;51.496;7.210;2023-03-01T01:46:44;8.20;;;5.93;;
2966;SDS011;1493;51.496;7.210;2023-03-01T01:49:17;10.10;;;6.40;;
2966;SDS011;1493;51.496;7.210;2023-03-01T01:51:55;10.90;;;6.53;;
2966;SDS011;1493;51.496;7.210;2023-03-01T01:54:26;7.65;;;5.88;;
2966;SDS011;1493;51.496;7.210;2023-03-01T01:56:57;8.98;;;6.60;;
2966;SDS011;1493;51.496;7.210;2023-03-01T01:59:29;11.93;;;7.25;;
2966;SDS011;1493;51.496;7.210;2023-03-01T02:01:59;11.20;;;6.32;;
2966;SDS011;1493;51.496;7.210;2023-03-01T02:04:29;10.45;;;7.45;;
2966;SDS011;1493;51.496;7.210;2023-03-01T02:06:57;9.20;;;6.05;;
2966;SDS011;1493;51.496;7.210;2023-03-01T02:09:29;9.60;;;6.10;;
2966;SDS011;1493;51.496;7.210;2023-03-01T02:11:58;9.27;;;6.90;;
2966;SDS011;1493;51.496;7.210;2023-03-01T02:14:25;10.50;;;6.40;;
2966;SDS011;1493;51.496;7.210;2023-03-01T02:16:52;10.05;;;7.28;;
2966;SDS011;1493;51.496;7.210;2023-03-01T02:19:22;8.98;;;6.60;;
2966;SDS011;1493;51.496;7.210;2023-03-01T02:21:59;14.63;;;8.05;;
2966;SDS011;1493;51.496;7.210;2023-03-01T02:24:31;10.32;;;6.55;;
2966;SDS011;1493;51.496;7.210;2023-03-01T02:27:07;6.95;;;5.63;;
2966;SDS011;1493;51.496;7.210;2023-03-01T02:29:36;14.43;;;8.02;;
2966;SDS011;1493;51.496;7.210;2023-03-01T02:32:03;13.35;;;6.10;;
2966;SDS011;1493;51.496;7.210;2023-03-01T02:34:31;9.30;;;6.50;;
2966;SDS011;1493;51.496;7.210;2023-03-01T02:37:00;11.45;;;7.22;;
2966;SDS011;1493;51.496;7.210;2023-03-01T02:39:30;9.45;;;6.25;;
2966;SDS011;1493;51.496;7.210;2023-03-01T02:42:00;9.32;;;7.38;;
2966;SDS011;1493;51.496;7.210;2023-03-01T02:44:28;10.65;;;7.07;;
2966;SDS011;1493;51.496;7.210;2023-03-01T02:46:57;8.73;;;5.95;;
2966;SDS011;1493;51.496;7.210;2023-03-01T02:49:29;11.13;;;6.93;;
2966;SDS011;1493;51.496;7.210;2023-03-01T02:54:54;11.13;;;6.18;;
2966;SDS011;1493;51.496;7.210;2023-03-01T02:57:24;9.02;;;7.28;;
2966;SDS011;1493;51.496;7.210;2023-03-01T02:59:53;9.85;;;5.28;;
2966;SDS011;1493;51.496;7.210;2023-03-01T03:02:23;8.30;;;5.65;;
2966;SDS011;1493;51.496;7.210;2023-03-01T03:05:01;8.15;;;5.63;;
2966;SDS011;1493;51.496;7.210;2023-03-01T03:07:31;9.48;;;5.93;;
2966;SDS011;1493;51.496;7.210;2023-03-01T03:09:59;8.73;;;5.60;;
2966;SDS011;1493;51.496;7.210;2023-03-01T03:12:25;12.18;;;7.05;;
2966;SDS011;1493;51.496;7.210;2023-03-01T03:14:52;8.80;;;5.47;;
2966;SDS011;1493;51.496;7.210;2023-03-01T03:17:19;10.52;;;6.57;;
2966;SDS011;1493;51.496;7.210;2023-03-01T03:19:47;9.18;;;6.13;;
2966;SDS011;1493;51.496;7.210;2023-03-01T03:22:14;9.43;;;6.97;;
2966;SDS011;1493;51.496;7.210;2023-03-01T03:24:41;7.50;;;5.68;;
2966;SDS011;1493;51.496;7.210;2023-03-01T03:27:08;8.13;;;6.07;;
2966;SDS011;1493;51.496;7.210;2023-03-01T03:29:35;7.75;;;5.72;;
2966;SDS011;1493;51.496;7.210;2023-03-01T03:32:02;14.90;;;6.90;;
2966;SDS011;1493;51.496;7.210;2023-03-01T03:34:29;9.93;;;6.32;;
2966;SDS011;1493;51.496;7.210;2023-03-01T03:36:57;10.93;;;6.95;;
2966;SDS011;1493;51.496;7.210;2023-03-01T03:39:24;7.35;;;5.18;;
2966;SDS011;1493;51.496;7.210;2023-03-01T03:41:51;11.13;;;6.50;;
2966;SDS011;1493;51.496;7.210;2023-03-01T03:44:18;7.88;;;5.85;;
2966;SDS011;1493;51.496;7.210;2023-03-01T03:46:45;7.43;;;5.22;;
2966;SDS011;1493;51.496;7.210;2023-03-01T03:49:12;9.73;;;5.88;;
2966;SDS011;1493;51.496;7.210;2023-03-01T03:51:39;10.88;;;6.22;;
2966;SDS011;1493;51.496;7.210;2023-03-01T03:54:07;9.02;;;6.35;;
2966;SDS011;1493;51.496;7.210;2023-03-01T03:56:34;9.73;;;6.35;;
2966;SDS011;1493;51.496;7.210;2023-03-01T03:59:00;8.18;;;5.82;;
2966;SDS011;1493;51.496;7.210;2023-03-01T04:01:27;11.80;;;6.55;;
2966;SDS011;1493;51.496;7.210;2023-03-01T04:03:54;9.75;;;6.63;;
2966;SDS011;1493;51.496;7.210;2023-03-01T04:06:21;9.23;;;6.50;;
2966;SDS011;1493;51.496;7.210;2023-03-01T04:08:48;12.02;;;6.70;;
2966;SDS011;1493;51.496;7.210;2023-03-01T04:11:17;10.00;;;5.35;;
2966;SDS011;1493;51.496;7.210;2023-03-01T04:13:54;11.00;;;8.10;;
2966;SDS011;1493;51.496;7.210;2023-03-01T04:16:23;9.48;;;6.50;;
2966;SDS011;1493;51.496;7.210;2023-03-01T04:18:50;12.95;;;6.88;;
2966;SDS011;1493;51.496;7.210;2023-03-01T04:21:18;8.20;;;5.80;;
2966;SDS011;1493;51.496;7.210;2023-03-01T04:23:45;10.88;;;6.35;;
2966;SDS011;1493;51.496;7.210;2023-03-01T04:26:12;9.80;;;5.88;;
2966;SDS011;1493;51.496;7.210;2023-03-01T04:28:41;10.68;;;6.70;;
2966;SDS011;1493;51.496;7.210;2023-03-01T04:31:11;9.35;;;6.85;;
2966;SDS011;1493;51.496;7.210;2023-03-01T04:33:40;10.85;;;7.22;;
2966;SDS011;1493;51.496;7.210;2023-03-01T04:36:08;13.55;;;6.78;;
2966;SDS011;1493;51.496;7.210;2023-03-01T04:38:36;9.75;;;6.97;;
2966;SDS011;1493;51.496;7.210;2023-03-01T04:41:03;11.70;;;7.50;;
2966;SDS011;1493;51.496;7.210;2023-03-01T04:43:30;8.82;;;7.90;;
2966;SDS011;1493;51.496;7.210;2023-03-01T04:46:04;12.93;;;7.82;;
2966;SDS011;1493;51.496;7.210;2023-03-01T04:48:34;10.95;;;6.70;;
2966;SDS011;1493;51.496;7.210;2023-03-01T04:51:02;9.98;;;7.15;;
2966;SDS011;1493;51.496;7.210;2023-03-01T04:53:29;10.52;;;6.82;;
2966;SDS011;1493;51.496;7.210;2023-03-01T04:55:56;13.38;;;6.88;;
2966;SDS011;1493;51.496;7.210;2023-03-01T04:58:23;10.13;;;6.85;;
2966;SDS011;1493;51.496;7.210;2023-03-01T05:00:51;13.07;;;7.53;;
2966;SDS011;1493;51.496;7.210;2023-03-01T05:03:20;11.10;;;7.80;;
2966;SDS011;1493;51.496;7.210;2023-03-01T05:05:48;13.32;;;7.45;;
2966;SDS011;1493;51.496;7.210;2023-03-01T05:08:15;12.75;;;7.65;;
2966;SDS011;1493;51.496;7.210;2023-03-01T05:10:43;12.65;;;7.60;;
2966;SDS011;1493;51.496;7.210;2023-03-01T05:13:12;15.15;;;7.00;;
2966;SDS011;1493;51.496;7.210;2023-03-01T05:15:40;10.00;;;7.50;;
2966;SDS011;1493;51.496;7.210;2023-03-01T05:18:07;15.13;;;8.20;;
2966;SDS011;1493;51.496;7.210;2023-03-01T05:20:37;9.90;;;7.38;;
2966;SDS011;1493;51.496;7.210;2023-03-01T05:23:04;14.95;;;8.55;;
2966;SDS011;1493;51.496;7.210;2023-03-01T05:25:32;10.88;;;7.57;;
2966;SDS011;1493;51.496;7.210;2023-03-01T05:28:05;11.55;;;7.95;;
2966;SDS011;1493;51.496;7.210;2023-03-01T05:30:33;12.77;;;8.57;;
2966;SDS011;1493;51.496;7.210;2023-03-01T05:33:00;11.70;;;9.18;;
2966;SDS011;1493;51.496;7.210;2023-03-01T05:35:27;10.43;;;7.78;;
2966;SDS011;1493;51.496;7.210;2023-03-01T05:37:58;11.20;;;7.50;;
2966;SDS011;1493;51.496;7.210;2023-03-01T05:40:25;13.45;;;8.18;;
2966;SDS011;1493;51.496;7.210;2023-03-01T05:42:52;9.38;;;7.18;;
2966;SDS011;1493;51.496;7.210;2023-03-01T05:45:21;14.25;;;8.25;;
2966;SDS011;1493;51.496;7.210;2023-03-01T05:47:49;16.00;;;9.30;;
2966;SDS011;1493;51.496;7.210;2023-03-01T05:50:18;14.50;;;8.15;;
2966;SDS011;1493;51.496;7.210;2023-03-01T05:52:46;10.43;;;7.88;;
2966;SDS011;1493;51.496;7.210;2023-03-01T05:55:15;15.25;;;9.70;;
2966;SDS011;1493;51.496;7.210;2023-03-01T05:57:42;12.60;;;8.23;;
2966;SDS011;1493;51.496;7.210;2023-03-01T06:00:10;12.52;;;8.73;;
2966;SDS011;1493;51.496;7.210;2023-03-01T06:02:39;14.68;;;8.05;;
2966;SDS011;1493;51.496;7.210;2023-03-01T06:05:06;13.48;;;8.95;;
2966;SDS011;1493;51.496;7.210;2023-03-01T06:07:35;11.73;;;7.57;;
2966;SDS011;1493;51.496;7.210;2023-03-01T06:10:03;21.60;;;8.80;;
2966;SDS011;1493;51.496;7.210;2023-03-01T06:12:32;13.65;;;8.43;;
2966;SDS011;1493;51.496;7.210;2023-03-01T06:14:59;13.23;;;7.32;;
2966;SDS011;1493;51.496;7.210;2023-03-01T06:17:26;14.48;;;8.50;;
2966;SDS011;1493;51.496;7.210;2023-03-01T06:19:55;10.52;;;6.60;;
2966;SDS011;1493;51.496;7.210;2023-03-01T06:22:22;10.65;;;7.88;;
2966;SDS011;1493;51.496;7.210;2023-03-01T06:24:49;12.30;;;7.80;;
2966;SDS011;1493;51.496;7.210;2023-03-01T06:27:18;12.18;;;7.85;;
2966;SDS011;1493;51.496;7.210;2023-03-01T06:29:49;9.38;;;7.65;;
2966;SDS011;1493;51.496;7.210;2023-03-01T06:32:15;11.20;;;7.75;;
2966;SDS011;1493;51.496;7.210;2023-03-01T06:34:42;11.00;;;7.28;;
2966;SDS011;1493;51.496;7.210;2023-03-01T06:37:09;13.88;;;7.97;;
2966;SDS011;1493;51.496;7.210;2023-03-01T06:39:37;12.20;;;7.45;;
2966;SDS011;1493;51.496;7.210;2023-03-01T06:42:04;9.98;;;7.25;;
2966;SDS011;1493;51.496;7.210;2023-03-01T06:44:31;12.43;;;8.15;;
2966;SDS011;1493;51.496;7.210;2023-03-01T06:46:59;14.15;;;8.38;;
2966;SDS011;1493;51.496;7.210;2023-03-01T06:49:25;13.07;;;8.00;;
2966;SDS011;1493;51.496;7.210;2023-03-01T06:51:52;10.40;;;7.30;;
2966;SDS011;1493;51.496;7.210;2023-03-01T06:54:19;11.00;;;7.57;;
2966;SDS011;1493;51.496;7.210;2023-03-01T06:56:47;12.38;;;8.55;;
2966;SDS011;1493;51.496;7.210;2023-03-01T06:59:15;17.08;;;10.88;;
2966;SDS011;1493;51.496;7.210;2023-03-01T07:01:43;16.70;;;9.05;;
2966;SDS011;1493;51.496;7.210;2023-03-01T07:04:11;11.65;;;7.05;;
2966;SDS011;1493;51.496;7.210;2023-03-01T07:06:39;10.45;;;7.68;;
2966;SDS011;1493;51.496;7.210;2023-03-01T07:09:06;12.40;;;8.13;;
2966;SDS011;1493;51.496;7.210;2023-03-01T07:11:33;15.38;;;9.05;;
2966;SDS011;1493;51.496;7.210;2023-03-01T07:14:00;14.13;;;9.10;;
2966;SDS011;1493;51.496;7.210;2023-03-01T07:16:26;15.85;;;7.47;;
2966;SDS011;1493;51.496;7.210;2023-03-01T07:18:53;12.07;;;8.32;;
2966;SDS011;1493;51.496;7.210;2023-03-01T07:21:22;13.55;;;8.70;;
2966;SDS011;1493;51.496;7.210;2023-03-01T07:23:48;12.63;;;8.00;;
2966;SDS011;1493;51.496;7.210;2023-03-01T07:26:15;11.02;;;7.18;;
2966;SDS011;1493;51.496;7.210;2023-03-01T07:28:44;12.55;;;8.40;;
2966;SDS011;1493;51.496;7.210;2023-03-01T07:31:20;11.40;;;8.00;;
2966;SDS011;1493;51.496;7.210;2023-03-01T07:33:47;18.75;;;9.32;;
2966;SDS011;1493;51.496;7.210;2023-03-01T07:36:13;11.10;;;8.00;;
2966;SDS011;1493;51.496;7.210;2023-03-01T07:38:42;11.88;;;8.20;;
2966;SDS011;1493;51.496;7.210;2023-03-01T07:41:08;15.05;;;9.18;;
2966;SDS011;1493;51.496;7.210;2023-03-01T07:43:35;12.82;;;9.25;;
2966;SDS011;1493;51.496;7.210;2023-03-01T07:46:02;10.60;;;7.80;;
2966;SDS011;1493;51.496;7.210;2023-03-01T07:48:31;15.90;;;8.02;;
2966;SDS011;1493;51.496;7.210;2023-03-01T07:50:58;14.82;;;9.52;;
2966;SDS011;1493;51.496;7.210;2023-03-01T07:53:25;12.20;;;8.10;;
2966;SDS011;1493;51.496;7.210;2023-03-01T07:56:01;14.90;;;8.07;;
2966;SDS011;1493;51.496;7.210;2023-03-01T07:58:28;13.40;;;8.07;;
2966;SDS011;1493;51.496;7.210;2023-03-01T08:00:55;11.25;;;8.02;;
2966;SDS011;1493;51.496;7.210;2023-03-01T08:03:22;13.10;;;7.82;;
2966;SDS011;1493;51.496;7.210;2023-03-01T08:05:49;12.48;;;8.10;;
2966;SDS011;1493;51.496;7.210;2023-03-01T08:08:15;12.05;;;7.32;;
2966;SDS011;1493;51.496;7.210;2023-03-01T08:10:42;13.82;;;10.10;;
2966;SDS011;1493;51.496;7.210;2023-03-01T08:13:11;11.70;;;9.05;;
2966;SDS011;1493;51.496;7.210;2023-03-01T08:15:37;12.77;;;7.70;;
2966;SDS011;1493;51.496;7.210;2023-03-01T08:18:04;12.25;;;8.05;;
2966;SDS011;1493;51.496;7.210;2023-03-01T08:20:31;12.02;;;7.80;;
2966;SDS011;1493;51.496;7.210;2023-03-01T08:22:58;11.88;;;7.88;;
2966;SDS011;1493;51.496;7.210;2023-03-01T08:25:25;11.77;;;8.00;;
2966;SDS011;1493;51.496;7.210;2023-03-01T08:27:51;12.00;;;7.70;;
2966;SDS011;1493;51.496;7.210;2023-03-01T08:30:20;13.20;;;8.35;;
2966;SDS011;1493;51.496;7.210;2023-03-01T08:32:48;13.80;;;8.57;;
2966;SDS011;1493;51.496;7.210;2023-03-01T08:35:16;9.67;;;7.77;;
2966;SDS011;1493;51.496;7.210;2023-03-01T08:37:43;11.50;;;7.88;;
2966;SDS011;1493;51.496;7.210;2023-03-01T08:40:10;10.60;;;7.18;;
2966;SDS011;1493;51.496;7.210;2023-03-01T08:42:38;15.20;;;8.60;;
2966;SDS011;1493;51.496;7.210;2023-03-01T08:45:06;12.60;;;7.53;;
2966;SDS011;1493;51.496;7.210;2023-03-01T08:47:35;8.70;;;6.30;;
2966;SDS011;1493;51.496;7.210;2023-03-01T08:50:02;12.50;;;6.10;;
2966;SDS011;1493;51.496;7.210;2023-03-01T08:52:31;10.53;;;7.20;;
2966;SDS011;1493;51.496;7.210;2023-03-01T08:54:58;12.03;;;6.90;;
2966;SDS011;1493;51.496;7.210;2023-03-01T08:57:26;9.60;;;6.43;;
2966;SDS011;1493;51.496;7.210;2023-03-01T08:59:53;10.40;;;6.73;;
2966;SDS011;1493;51.496;7.210;2023-03-01T09:02:21;8.30;;;5.83;;
2966;SDS011;1493;51.496;7.210;2023-03-01T09:04:49;8.10;;;6.33;;
2966;SDS011;1493;51.496;7.210;2023-03-01T09:07:17;11.00;;;6.40;;
2966;SDS011;1493;51.496;7.210;2023-03-01T09:09:44;9.70;;;6.40;;
2966;SDS011;1493;51.496;7.210;2023-03-01T09:12:11;9.33;;;6.07;;
2966;SDS011;1493;51.496;7.210;2023-03-01T09:14:38;9.00;;;6.40;;
2966;SDS011;1493;51.496;7.210;2023-03-01T09:17:06;7.77;;;5.63;;
2966;SDS011;1493;51.496;7.210;2023-03-01T09:19:32;8.40;;;5.27;;
2966;SDS011;1493;51.496;7.210;2023-03-01T09:22:02;10.33;;;6.43;;
2966;SDS011;1493;51.496;7.210;2023-03-01T09:24:29;7.97;;;5.83;;
2966;SDS011;1493;51.496;7.210;2023-03-01T09:26:56;7.00;;;5.10;;
2966;SDS011;1493;51.496;7.210;2023-03-01T09:29:23;11.20;;;6.70;;
2966;SDS011;1493;51.496;7.210;2023-03-01T09:31:50;8.50;;;5.63;;
2966;SDS011;1493;51.496;7.210;2023-03-01T09:34:19;10.43;;;6.23;;
2966;SDS011;1493;51.496;7.210;2023-03-01T09:36:48;8.23;;;5.00;;
2966;SDS011;1493;51.496;7.210;2023-03-01T09:39:17;7.30;;;5.23;;
2966;SDS011;1493;51.496;7.210;2023-03-01T09:41:46;9.07;;;4.67;;
2966;SDS011;1493;51.496;7.210;2023-03-01T09:44:21;8.23;;;5.50;;
2966;SDS011;1493;51.496;7.210;2023-03-01T09:46:55;9.77;;;5.37;;
2966;SDS011;1493;51.496;7.210;2023-03-01T09:49:23;9.27;;;5.50;;
2966;SDS011;1493;51.496;7.210;2023-03-01T09:51:54;6.57;;;4.60;;
2966;SDS011;1493;51.496;7.210;2023-03-01T09:54:26;14.23;;;5.27;;
2966;SDS011;1493;51.496;7.210;2023-03-01T09:56:59;6.57;;;5.03;;
2966;SDS011;1493;51.496;7.210;2023-03-01T09:59:36;7.90;;;5.23;;
2966;SDS011;1493;51.496;7.210;2023-03-01T10:02:24;10.90;;;5.27;;
2966;SDS011;1493;51.496;7.210;2023-03-01T10:04:58;8.20;;;4.50;;
2966;SDS011;1493;51.496;7.210;2023-03-01T10:07:40;7.00;;;5.10;;
2966;SDS011;1493;51.496;7.210;2023-03-01T10:10:16;7.07;;;5.47;;
2966;SDS011;1493;51.496;7.210;2023-03-01T10:12:51;5.50;;;4.13;;
2966;SDS011;1493;51.496;7.210;2023-03-01T10:15:20;6.40;;;4.80;;
2966;SDS011;1493;51.496;7.210;2023-03-01T10:17:55;6.70;;;5.00;;
2966;SDS011;1493;51.496;7.210;2023-03-01T10:20:24;7.30;;;4.33;;
2966;SDS011;1493;51.496;7.210;2023-03-01T10:22:53;7.40;;;5.00;;
2966;SDS011;1493;51.496;7.210;2023-03-01T10:25:23;7.67;;;4.83;;
2966;SDS011;1493;51.496;7.210;2023-03-01T10:28:10;7.00;;;4.57;;
2966;SDS011;1493;51.496;7.210;2023-03-01T10:30:42;7.17;;;4.43;;
2966;SDS011;1493;51.496;7.210;2023-03-01T10:33:13;8.63;;;4.90;;
2966;SDS011;1493;51.496;7.210;2023-03-01T10:35:43;6.37;;;5.13;;
2966;SDS011;1493;51.496;7.210;2023-03-01T10:38:10;7.03;;;4.80;;
2966;SDS011;1493;51.496;7.210;2023-03-01T10:40:51;6.80;;;5.57;;
2966;SDS011;1493;51.496;7.210;2023-03-01T10:43:20;7.37;;;5.40;;
2966;SDS011;1493;51.496;7.210;2023-03-01T10:45:47;5.83;;;4.50;;
2966;SDS011;1493;51.496;7.210;2023-03-01T10:48:15;8.70;;;5.47;;
2966;SDS011;1493;51.496;7.210;2023-03-01T10:50:44;6.20;;;5.23;;
2966;SDS011;1493;51.496;7.210;2023-03-01T10:53:23;5.87;;;5.20;;
2966;SDS011;1493;51.496;7.210;2023-03-01T10:55:58;8.33;;;5.77;;
2966;SDS011;1493;51.496;7.210;2023-03-01T10:58:27;6.40;;;4.90;;
2966;SDS011;1493;51.496;7.210;2023-03-01T11:00:55;7.70;;;5.60;;
2966;SDS011;1493;51.496;7.210;2023-03-01T11:03:24;5.77;;;4.97;;
2966;SDS011;1493;51.496;7.210;2023-03-01T11:05:54;5.20;;;4.47;;
2966;SDS011;1493;51.496;7.210;2023-03-01T11:08:29;6.27;;;4.60;;
2966;SDS011;1493;51.496;7.210;2023-03-01T11:11:06;9.60;;;5.67;;
2966;SDS011;1493;51.496;7.210;2023-03-01T11:13:46;6.63;;;5.20;;
2966;SDS011;1493;51.496;7.210;2023-03-01T11:16:23;6.03;;;4.90;;
2966;SDS011;1493;51.496;7.210;2023-03-01T11:18:59;9.03;;;6.10;;
2966;SDS011;1493;51.496;7.210;2023-03-01T11:21:42;7.10;;;5.23;;
2966;SDS011;1493;51.496;7.210;2023-03-01T11:24:16;7.53;;;5.00;;
2966;SDS011;1493;51.496;7.210;2023-03-01T11:26:47;8.40;;;6.00;;
2966;SDS011;1493;51.496;7.210;2023-03-01T11:29:21;7.00;;;4.73;;
2966;SDS011;1493;51.496;7.210;2023-03-01T11:31:55;7.40;;;4.63;;
2966;SDS011;1493;51.496;7.210;2023-03-01T11:34:28;9.67;;;6.20;;
2966;SDS011;1493;51.496;7.210;2023-03-01T11:37:07;5.93;;;4.70;;
2966;SDS011;1493;51.496;7.210;2023-03-01T11:39:57;8.60;;;5.53;;
2966;SDS011;1493;51.496;7.210;2023-03-01T11:42:34;11.90;;;5.87;;
2966;SDS011;1493;51.496;7.210;2023-03-01T11:45:12;6.90;;;6.20;;
2966;SDS011;1493;51.496;7.210;2023-03-01T11:50:39;8.90;;;5.63;;
2966;SDS011;1493;51.496;7.210;2023-03-01T11:53:21;10.03;;;6.33;;
2966;SDS011;1493;51.496;7.210;2023-03-01T11:56:03;8.50;;;6.43;;
2966;SDS011;1493;51.496;7.210;2023-03-01T11:58:44;8.20;;;5.53;;
2966;SDS011;1493;51.496;7.210;2023-03-01T12:01:26;7.73;;;5.30;;
2966;SDS011;1493;51.496;7.210;2023-03-01T12:04:20;7.73;;;5.33;;
2966;SDS011;1493;51.496;7.210;2023-03-01T12:07:09;7.50;;;5.77;;
2966;SDS011;1493;51.496;7.210;2023-03-01T12:09:53;7.20;;;5.67;;
2966;SDS011;1493;51.496;7.210;2023-03-01T12:12:32;5.90;;;5.27;;
2966;SDS011;1493;51.496;7.210;2023-03-01T12:18:09;5.70;;;5.10;;
2966;SDS011;1493;51.496;7.210;2023-03-01T12:20:56;6.17;;;5.07;;
2966;SDS011;1493;51.496;7.210;2023-03-01T12:23:44;8.10;;;6.13;;
2966;SDS011;1493;51.496;7.210;2023-03-01T12:26:27;9.73;;;6.20;;
2966;SDS011;1493;51.496;7.210;2023-03-01T12:29:02;6.63;;;5.50;;
2966;SDS011;1493;51.496;7.210;2023-03-01T12:31:46;7.47;;;5.60;;
2966;SDS011;1493;51.496;7.210;2023-03-01T12:34:31;6.33;;;5.43;;
2966;SDS011;1493;51.496;7.210;2023-03-01T12:37:14;6.93;;;5.60;;
2966;SDS011;1493;51.496;7.210;2023-03-01T12:39:51;9.27;;;6.60;;
2966;SDS011;1493;51.496;7.210;2023-03-01T12:42:39;7.57;;;5.80;;
2966;SDS011;1493;51.496;7.210;2023-03-01T12:45:30;6.30;;;5.47;;
2966;SDS011;1493;51.496;7.210;2023-03-01T12:48:11;6.90;;;5.40;;
2966;SDS011;1493;51.496;7.210;2023-03-01T12:50:51;7.60;;;6.13;;
2966;SDS011;1493;51.496;7.210;2023-03-01T12:53:22;8.97;;;6.07;;
2966;SDS011;1493;51.496;7.210;2023-03-01T12:55:50;6.27;;;4.73;;
2966;SDS011;1493;51.496;7.210;2023-03-01T12:58:23;10.70;;;6.40;;
2966;SDS011;1493;51.496;7.210;2023-03-01T13:00:57;5.77;;;4.87;;
2966;SDS011;1493;51.496;7.210;2023-03-01T13:03:33;5.47;;;4.77;;
2966;SDS011;1493;51.496;7.210;2023-03-01T13:06:10;6.50;;;5.80;;
2966;SDS011;1493;51.496;7.210;2023-03-01T13:08:44;6.83;;;5.43;;
2966;SDS011;1493;51.496;7.210;2023-03-01T13:11:18;6.97;;;5.20;;
2966;SDS011;1493;51.496;7.210;2023-03-01T13:13:47;6.33;;;5.70;;
2966;SDS011;1493;51.496;7.210;2023-03-01T13:16:20;6.33;;;5.40;;
2966;SDS011;1493;51.496;7.210;2023-03-01T13:19:10;8.27;;;5.90;;
2966;SDS011;1493;51.496;7.210;2023-03-01T13:21:41;7.70;;;6.00;;
2966;SDS011;1493;51.496;7.210;2023-03-01T13:24:26;8.33;;;5.80;;
2966;SDS011;1493;51.496;7.210;2023-03-01T13:27:11;6.40;;;5.70;;
2966;SDS011;1493;51.496;7.210;2023-03-01T13:29:54;6.50;;;5.90;;
2966;SDS011;1493;51.496;7.210;2023-03-01T13:32:24;5.87;;;5.20;;
2966;SDS011;1493;51.496;7.210;2023-03-01T13:34:57;9.20;;;6.60;;
2966;SDS011;1493;51.496;7.210;2023-03-01T13:37:26;6.77;;;5.77;;
2966;SDS011;1493;51.496;7.210;2023-03-01T13:40:08;8.53;;;6.00;;
2966;SDS011;1493;51.496;7.210;2023-03-01T13:43:23;9.00;;;5.87;;
2966;SDS011;1493;51.496;7.210;2023-03-01T13:45:55;7.10;;;5.50;;
2966;SDS011;1493;51.496;7.210;2023-03-01T13:48:24;7.90;;;6.57;;
2966;SDS011;1493;51.496;7.210;2023-03-01T13:50:55;9.20;;;6.07;;
2966;SDS011;1493;51.496;7.210;2023-03-01T13:53:26;7.30;;;6.60;;
2966;SDS011;1493;51.496;7.210;2023-03-01T13:55:58;7.30;;;5.80;;
2966;SDS011;1493;51.496;7.210;2023-03-01T13:58:28;7.00;;;6.30;;
2966;SDS011;1493;51.496;7.210;2023-03-01T14:01:00;9.10;;;6.80;;
2966;SDS011;1493;51.496;7.210;2023-03-01T14:03:29;11.40;;;7.00;;
2966;SDS011;1493;51.496;7.210;2023-03-01T14:05:59;7.17;;;6.10;;
2966;SDS011;1493;51.496;7.210;2023-03-01T14:08:28;7.67;;;6.07;;
2966;SDS011;1493;51.496;7.210;2023-03-01T14:11:07;8.47;;;6.60;;
2966;SDS011;1493;51.496;7.210;2023-03-01T14:13:59;8.27;;;5.80;;
2966;SDS011;1493;51.496;7.210;2023-03-01T14:16:37;7.27;;;5.37;;
2966;SDS011;1493;51.496;7.210;2023-03-01T14:19:15;7.87;;;5.53;;
2966;SDS011;1493;51.496;7.210;2023-03-01T14:21:46;7.60;;;6.80;;
2966;SDS011;1493;51.496;7.210;2023-03-01T14:24:17;7.47;;;6.40;;
2966;SDS011;1493;51.496;7.210;2023-03-01T14:26:47;9.63;;;5.80;;
2966;SDS011;1493;51.496;7.210;2023-03-01T14:29:33;6.53;;;5.80;;
2966;SDS011;1493;51.496;7.210;2023-03-01T14:34:45;6.80;;;5.67;;
2966;SDS011;1493;51.496;7.210;2023-03-01T14:37:19;9.70;;;6.90;;
2966;SDS011;1493;51.496;7.210;2023-03-01T14:39:48;7.20;;;5.90;;
2966;SDS011;1493;51.496;7.210;2023-03-01T14:42:16;12.73;;;6.67;;
2966;SDS011;1493;51.496;7.210;2023-03-01T14:44:45;8.53;;;5.10;;
2966;SDS011;1493;51.496;7.210;2023-03-01T14:47:14;7.30;;;5.80;;
2966;SDS011;1493;51.496;7.210;2023-03-01T14:49:45;9.00;;;5.97;;
2966;SDS011;1493;51.496;7.210;2023-03-01T14:52:18;10.53;;;6.27;;
2966;SDS011;1493;51.496;7.210;2023-03-01T14:54:49;9.33;;;6.13;;
2966;SDS011;1493;51.496;7.210;2023-03-01T14:57:19;8.00;;;6.10;;
2966;SDS011;1493;51.496;7.210;2023-03-01T14:59:47;8.10;;;6.20;;
2966;SDS011;1493;51.496;7.210;2023-03-01T15:02:18;9.77;;;5.80;;
2966;SDS011;1493;51.496;7.210;2023-03-01T15:04:48;8.60;;;5.80;;
2966;SDS011;1493;51.496;7.210;2023-03-01T15:07:17;8.20;;;5.23;;
2966;SDS011;1493;51.496;7.210;2023-03-01T15:09:46;10.73;;;5.70;;
2966;SDS011;1493;51.496;7.210;2023-03-01T15:12:36;9.40;;;6.40;;
2966;SDS011;1493;51.496;7.210;2023-03-01T15:18:00;9.50;;;5.60;;
2966;SDS011;1493;51.496;7.210;2023-03-01T15:20:29;6.83;;;5.13;;
2966;SDS011;1493;51.496;7.210;2023-03-01T15:23:00;10.53;;;5.30;;
2966;SDS011;1493;51.496;7.210;2023-03-01T15:25:30;7.73;;;4.97;;
2966;SDS011;1493;51.496;7.210;2023-03-01T15:27:58;7.93;;;5.53;;
2966;SDS011;1493;51.496;7.210;2023-03-01T15:30:27;7.83;;;4.90;;
2966;SDS011;1493;51.496;7.210;2023-03-01T15:36:01;9.60;;;6.10;;
2966;SDS011;1493;51.496;7.210;2023-03-01T15:38:51;9.00;;;5.80;;
2966;SDS011;1493;51.496;7.210;2023-03-01T15:41:24;9.27;;;5.77;;
2966;SDS011;1493;51.496;7.210;2023-03-01T15:43:52;8.90;;;5.80;;
2966;SDS011;1493;51.496;7.210;2023-03-01T15:46:25;9.50;;;6.23;;
2966;SDS011;1493;51.496;7.210;2023-03-01T15:48:54;10.40;;;6.17;;